createdAt,value
2018-12-21T00:03:35.161Z,7.37
2018-12-21T00:08:37.627Z,7.33
2018-12-21T00:13:40.120Z,7.63
2018-12-21T00:18:42.580Z,7.70
2018-12-21T00:23:45.088Z,7.03
2018-12-21T00:28:47.556Z,6.67
2018-12-21T00:33:56.049Z,7.33
2018-12-21T00:39:04.149Z,7.30
2018-12-21T00:44:08.661Z,6.20
2018-12-21T00:49:11.122Z,5.97
2018-12-21T00:54:13.953Z,6.43
2018-12-21T00:59:16.540Z,6.10
2018-12-21T01:04:19.936Z,4.73
2018-12-21T01:09:22.558Z,6.93
2018-12-21T01:14:25.030Z,6.53
2018-12-21T01:19:28.069Z,5.77
2018-12-21T01:24:30.535Z,5.73
2018-12-21T01:29:33.005Z,5.27
2018-12-21T01:34:35.472Z,6.53
2018-12-21T01:39:37.944Z,4.43
2018-12-21T01:44:40.413Z,6.13
2018-12-21T01:49:42.885Z,3.87
2018-12-21T01:54:45.487Z,3.93
2018-12-21T01:59:47.964Z,5.60
2018-12-21T02:04:50.428Z,5.80
2018-12-21T02:09:53.136Z,5.17
2018-12-21T02:14:55.662Z,4.77
2018-12-21T02:19:58.159Z,4.40
2018-12-21T02:25:00.624Z,4.30
2018-12-21T02:30:03.608Z,5.33
2018-12-21T02:35:06.793Z,3.57
2018-12-21T02:40:09.294Z,4.33
2018-12-21T02:45:11.810Z,5.90
2018-12-21T02:50:14.343Z,4.33
2018-12-21T02:55:16.821Z,4.37
2018-12-21T03:00:19.283Z,4.50
2018-12-21T03:05:21.818Z,4.33
2018-12-21T03:10:24.276Z,5.23
2018-12-21T03:15:26.803Z,4.77
2018-12-21T03:20:29.301Z,4.53
2018-12-21T03:25:32.497Z,2.83
2018-12-21T03:30:34.997Z,4.37
2018-12-21T03:35:37.462Z,3.07
2018-12-21T03:40:39.981Z,5.80
2018-12-21T03:45:42.641Z,4.70
2018-12-21T03:50:45.116Z,4.40
2018-12-21T03:55:47.576Z,3.97
2018-12-21T04:00:50.079Z,3.73
2018-12-21T04:05:52.553Z,3.27
2018-12-21T04:10:55.044Z,3.00
2018-12-21T04:15:58.104Z,3.13
2018-12-21T04:21:00.569Z,5.50
2018-12-21T04:26:03.047Z,4.33
2018-12-21T04:31:05.532Z,4.70
2018-12-21T04:36:08.016Z,3.13
2018-12-21T04:41:10.480Z,3.50
2018-12-21T04:46:13.079Z,2.73
2018-12-21T04:51:15.604Z,3.17
2018-12-21T04:56:18.081Z,3.23
2018-12-21T05:01:20.568Z,3.27
2018-12-21T05:06:23.034Z,2.47
2018-12-21T05:11:25.496Z,3.17
2018-12-21T05:16:27.965Z,3.03
2018-12-21T05:21:30.426Z,3.07
2018-12-21T05:26:32.883Z,3.40
2018-12-21T05:31:35.353Z,3.80
2018-12-21T05:36:37.829Z,3.73
2018-12-21T05:41:40.464Z,3.47
2018-12-21T05:46:42.945Z,2.43
2018-12-21T05:51:45.483Z,2.93
2018-12-21T05:56:47.948Z,2.00
2018-12-21T06:01:50.717Z,3.03
2018-12-21T06:06:53.365Z,2.63
2018-12-21T06:11:55.832Z,2.27
2018-12-21T06:16:58.320Z,2.50
2018-12-21T06:22:00.878Z,3.77
2018-12-21T06:27:04.049Z,4.20
2018-12-21T06:32:06.717Z,3.87
2018-12-21T06:37:09.318Z,2.93
2018-12-21T06:42:11.905Z,3.10
2018-12-21T06:47:14.389Z,2.20
2018-12-21T06:52:16.994Z,3.47
2018-12-21T06:57:19.476Z,2.60
2018-12-21T07:02:22.186Z,2.50
2018-12-21T07:07:24.645Z,2.33
2018-12-21T07:12:27.133Z,3.50
2018-12-21T07:17:29.597Z,2.87
2018-12-21T07:22:32.094Z,2.27
2018-12-21T07:27:34.703Z,3.03
2018-12-21T07:32:37.170Z,2.23
2018-12-21T07:37:39.712Z,2.30
2018-12-21T07:42:42.195Z,2.97
2018-12-21T07:47:44.815Z,2.40
2018-12-21T07:52:47.285Z,2.67
2018-12-21T07:57:49.752Z,5.33
2018-12-21T08:02:52.212Z,2.67
2018-12-21T08:07:54.800Z,4.03
2018-12-21T08:12:57.256Z,2.27
2018-12-21T08:17:59.716Z,2.77
2018-12-21T08:23:02.356Z,2.33
2018-12-21T08:28:04.888Z,1.50
2018-12-21T08:33:07.423Z,2.63
2018-12-21T08:38:10.700Z,3.23
2018-12-21T08:43:13.170Z,2.27
2018-12-21T08:48:15.632Z,1.60
2018-12-21T08:53:18.412Z,4.07
2018-12-21T08:58:20.903Z,1.93
2018-12-21T09:03:23.416Z,2.50
2018-12-21T09:08:25.941Z,5.17
2018-12-21T09:13:28.603Z,7.17
2018-12-21T09:18:31.082Z,13.80
2018-12-21T09:23:33.961Z,23.90
2018-12-21T09:28:36.591Z,37.10
2018-12-21T09:33:39.120Z,50.63
2018-12-21T09:38:41.584Z,52.03
2018-12-21T09:43:44.052Z,55.77
2018-12-21T09:48:46.631Z,62.93
2018-12-21T09:53:49.109Z,65.33
2018-12-21T09:58:51.585Z,68.37
2018-12-21T10:03:54.239Z,71.97
2018-12-21T10:08:56.747Z,75.63
2018-12-21T10:14:00.001Z,71.03
2018-12-21T10:19:02.483Z,71.70
2018-12-21T10:24:04.984Z,64.53
2018-12-21T10:29:07.464Z,60.70
2018-12-21T10:34:10.016Z,60.50
2018-12-21T10:39:12.485Z,59.97
2018-12-21T10:44:14.953Z,59.97
2018-12-21T10:49:17.488Z,57.83
2018-12-21T10:54:26.842Z,57.40
2018-12-21T10:59:24.621Z,56.90
2018-12-21T11:04:27.152Z,58.47
2018-12-21T11:09:29.620Z,57.60
2018-12-21T11:14:32.613Z,57.87
2018-12-21T11:19:35.996Z,60.67
2018-12-21T11:24:38.545Z,62.97
2018-12-21T11:29:41.084Z,63.60
2018-12-21T11:34:43.548Z,61.50
2018-12-21T11:39:46.019Z,61.40
2018-12-21T11:44:48.488Z,58.37
2018-12-21T11:49:51.116Z,56.23
2018-12-21T11:54:53.732Z,56.37
2018-12-21T11:59:56.326Z,53.43
2018-12-21T12:04:58.797Z,52.53
2018-12-21T12:10:01.267Z,53.63
2018-12-21T12:15:05.365Z,53.43
2018-12-21T12:20:07.996Z,52.37
2018-12-21T12:25:10.460Z,51.40
2018-12-21T12:30:12.924Z,53.83
2018-12-21T12:35:15.420Z,50.97
2018-12-21T12:40:17.940Z,51.30
2018-12-21T12:45:20.415Z,50.37
2018-12-21T12:50:22.947Z,51.90
2018-12-21T12:55:25.621Z,48.70
2018-12-21T13:00:28.120Z,49.73
2018-12-21T13:05:30.589Z,50.10
2018-12-21T13:10:33.067Z,50.40
2018-12-21T13:15:36.285Z,49.37
2018-12-21T13:20:38.781Z,49.00
2018-12-21T13:25:41.263Z,47.77
2018-12-21T13:30:43.760Z,48.10
2018-12-21T13:35:46.764Z,47.17
2018-12-21T13:40:49.236Z,46.73
2018-12-21T13:45:51.708Z,45.53
2018-12-21T13:50:54.252Z,45.90
2018-12-21T13:55:56.747Z,47.30
2018-12-21T14:00:59.300Z,46.17
2018-12-21T14:06:01.835Z,45.63
2018-12-21T14:11:04.349Z,46.70
2018-12-21T14:16:06.867Z,44.67
2018-12-21T14:21:09.333Z,45.57
2018-12-21T14:26:11.819Z,46.27
2018-12-21T14:31:14.535Z,44.13
2018-12-21T14:36:16.998Z,45.53
2018-12-21T14:41:19.579Z,44.03
2018-12-21T14:46:22.205Z,43.53
2018-12-21T14:51:24.715Z,43.70
2018-12-21T14:56:27.352Z,43.23
2018-12-21T15:01:29.948Z,43.13
2018-12-21T15:06:32.445Z,43.03
2018-12-21T15:11:34.977Z,43.97
2018-12-21T15:16:37.485Z,43.97
2018-12-21T15:21:39.980Z,41.60
2018-12-21T15:26:42.457Z,42.57
2018-12-21T15:31:45.484Z,43.23
2018-12-21T15:36:48.399Z,40.80
2018-12-21T15:41:50.994Z,41.97
2018-12-21T15:46:53.564Z,43.53
2018-12-21T15:51:56.064Z,42.03
2018-12-21T15:56:58.557Z,41.33
2018-12-21T16:02:01.089Z,40.23
2018-12-21T16:07:03.609Z,41.17
2018-12-21T16:12:06.157Z,39.63
2018-12-21T16:17:08.893Z,39.37
2018-12-21T16:22:11.399Z,39.90
2018-12-21T16:27:14.517Z,38.00
2018-12-21T16:32:16.989Z,38.60
2018-12-21T16:37:19.486Z,39.33
2018-12-21T16:42:21.971Z,38.07
2018-12-21T16:47:24.845Z,38.20
2018-12-21T16:52:27.363Z,39.00
2018-12-21T16:57:29.824Z,35.33
2018-12-21T17:02:33.259Z,35.97
2018-12-21T17:07:35.755Z,36.77
2018-12-21T17:12:38.243Z,33.57
2018-12-21T17:17:40.733Z,33.93
2018-12-21T17:22:43.196Z,34.10
2018-12-21T17:27:46.141Z,34.87
2018-12-21T17:32:48.609Z,32.43
2018-12-21T17:37:51.082Z,30.70
2018-12-21T17:42:53.579Z,33.33
2018-12-21T17:47:56.064Z,31.87
2018-12-21T17:52:58.527Z,32.47
2018-12-21T17:58:01.011Z,32.50
2018-12-21T18:03:03.527Z,30.57
2018-12-21T18:08:06.676Z,28.90
2018-12-21T18:13:09.306Z,29.80
2018-12-21T18:18:12.036Z,28.93
2018-12-21T18:23:15.243Z,30.30
2018-12-21T18:28:22.289Z,27.33
2018-12-21T18:33:24.933Z,27.23
2018-12-21T18:38:27.448Z,25.73
2018-12-21T18:43:29.919Z,25.27
2018-12-21T18:48:32.540Z,25.33
2018-12-21T18:53:35.017Z,24.60
2018-12-21T18:58:37.480Z,24.30
2018-12-21T19:03:39.978Z,23.73
2018-12-21T19:08:42.441Z,22.63
2018-12-21T19:13:44.946Z,21.53
2018-12-21T19:18:47.412Z,22.13
2018-12-21T19:23:49.871Z,21.43
2018-12-21T19:28:52.363Z,20.47
2018-12-21T19:33:54.836Z,19.90
2018-12-21T19:38:57.301Z,19.47
2018-12-21T19:43:59.763Z,19.00
2018-12-21T19:49:02.256Z,18.03
2018-12-21T19:54:04.744Z,17.80
2018-12-21T19:59:07.216Z,18.70
2018-12-21T20:04:09.693Z,17.53
2018-12-21T20:09:12.211Z,17.57
2018-12-21T20:14:14.772Z,17.57
2018-12-21T20:19:17.293Z,17.13
2018-12-21T20:24:19.814Z,14.97
2018-12-21T20:29:22.293Z,15.87
2018-12-21T20:34:24.887Z,16.80
2018-12-21T20:39:27.729Z,15.40
2018-12-21T20:44:30.241Z,15.57
2018-12-21T20:49:32.708Z,14.77
2018-12-21T20:54:36.565Z,15.50
2018-12-21T20:59:39.479Z,14.73
2018-12-21T21:04:42.076Z,14.37
2018-12-21T21:09:44.652Z,15.47
2018-12-21T21:14:47.362Z,14.60
2018-12-21T21:19:50.218Z,13.53
2018-12-21T21:24:52.697Z,13.53
2018-12-21T21:29:55.340Z,13.77
2018-12-21T21:34:58.396Z,12.83
2018-12-21T21:40:02.382Z,13.50
2018-12-21T21:45:08.164Z,13.37
2018-12-21T21:50:10.652Z,13.13
2018-12-21T21:55:13.172Z,13.17
2018-12-21T22:00:15.732Z,12.37
2018-12-21T22:05:18.353Z,13.10
2018-12-21T22:10:20.848Z,12.27
2018-12-21T22:15:23.985Z,11.97
2018-12-21T22:20:26.484Z,13.03
2018-12-21T22:25:29.053Z,12.20
2018-12-21T22:30:31.701Z,11.87
2018-12-21T22:35:34.193Z,11.80
2018-12-21T22:40:36.689Z,11.30
2018-12-21T22:45:39.264Z,11.63
2018-12-21T22:50:41.959Z,11.23
2018-12-21T22:55:44.429Z,10.77
2018-12-21T23:00:47.221Z,10.73
2018-12-21T23:05:49.747Z,9.93
2018-12-21T23:10:52.837Z,10.70
2018-12-21T23:15:55.313Z,10.60
2018-12-21T23:20:57.892Z,10.27
2018-12-21T23:26:00.359Z,10.83
2018-12-21T23:31:02.820Z,10.13
2018-12-21T23:36:05.705Z,8.90
2018-12-21T23:41:08.176Z,9.47
2018-12-21T23:46:10.731Z,8.70
2018-12-21T23:51:13.309Z,8.87
2018-12-21T23:56:15.776Z,8.90
